createdAt,value
2017-11-08T00:01:52.438Z,9.53
2017-11-08T00:04:20.856Z,10.03
2017-11-08T00:06:49.172Z,11.27
2017-11-08T00:09:17.461Z,10.87
2017-11-08T00:11:45.791Z,10.90
2017-11-08T00:14:14.079Z,10.10
2017-11-08T00:16:42.374Z,10.90
2017-11-08T00:19:10.741Z,12.13
2017-11-08T00:21:47.425Z,11.40
2017-11-08T00:24:15.714Z,9.57
2017-11-08T00:26:44.027Z,12.87
2017-11-08T00:29:12.383Z,11.90
2017-11-08T00:31:40.703Z,9.47
2017-11-08T00:34:08.985Z,10.50
2017-11-08T00:36:37.288Z,11.20
2017-11-08T00:39:05.901Z,10.17
2017-11-08T00:41:34.212Z,11.00
2017-11-08T00:44:02.559Z,10.73
2017-11-08T00:46:30.935Z,12.80
2017-11-08T00:48:59.204Z,9.60
2017-11-08T00:51:27.666Z,9.23
2017-11-08T00:53:55.952Z,10.20
2017-11-08T00:56:24.283Z,11.80
2017-11-08T00:58:52.615Z,11.13
2017-11-08T01:01:21.004Z,9.77
2017-11-08T01:03:49.272Z,11.47
2017-11-08T01:06:17.601Z,13.23
2017-11-08T01:08:45.883Z,9.83
2017-11-08T01:11:14.797Z,9.47
2017-11-08T01:13:43.083Z,10.00
2017-11-08T01:16:11.384Z,19.73
2017-11-08T01:18:39.659Z,9.80
2017-11-08T01:21:08.031Z,12.40
2017-11-08T01:23:36.500Z,10.77
2017-11-08T01:26:04.811Z,11.27
2017-11-08T01:28:33.241Z,9.30
2017-11-08T01:31:01.549Z,10.30
2017-11-08T01:33:30.135Z,13.70
2017-11-08T01:35:58.449Z,11.33
2017-11-08T01:38:26.888Z,12.80
2017-11-08T01:40:55.189Z,10.80
2017-11-08T01:43:28.043Z,9.87
2017-11-08T01:45:56.534Z,10.33
2017-11-08T01:48:24.911Z,12.63
2017-11-08T01:50:58.107Z,11.77
2017-11-08T01:53:26.436Z,9.33
2017-11-08T01:55:54.927Z,10.17
2017-11-08T01:58:23.224Z,10.40
2017-11-08T02:00:51.543Z,9.83
2017-11-08T02:03:19.963Z,12.40
2017-11-08T02:05:48.284Z,11.80
2017-11-08T02:08:16.721Z,10.40
2017-11-08T02:10:45.044Z,10.50
2017-11-08T02:13:13.345Z,12.43
2017-11-08T02:15:41.655Z,11.97
2017-11-08T02:18:15.437Z,10.43
2017-11-08T02:20:43.796Z,11.27
2017-11-08T02:23:12.108Z,10.90
2017-11-08T02:25:40.489Z,10.50
2017-11-08T02:28:10.792Z,11.37
2017-11-08T02:30:39.115Z,11.57
2017-11-08T02:33:07.432Z,11.57
2017-11-08T02:35:35.783Z,11.90
2017-11-08T02:38:04.051Z,11.10
2017-11-08T02:40:32.345Z,11.97
2017-11-08T02:43:02.537Z,12.03
2017-11-08T02:45:36.755Z,11.13
2017-11-08T02:48:05.027Z,10.50
2017-11-08T02:50:33.322Z,12.13
2017-11-08T02:53:01.648Z,12.53
2017-11-08T02:55:31.947Z,11.10
2017-11-08T02:58:00.397Z,13.20
2017-11-08T03:00:32.564Z,11.57
2017-11-08T03:03:03.811Z,13.90
2017-11-08T03:05:32.284Z,12.23
2017-11-08T03:08:00.728Z,12.00
2017-11-08T03:10:29.043Z,11.57
2017-11-08T03:12:57.495Z,12.67
2017-11-08T03:15:25.873Z,13.90
2017-11-08T03:17:54.135Z,11.73
2017-11-08T03:20:22.564Z,13.43
2017-11-08T03:22:50.863Z,13.00
2017-11-08T03:25:19.242Z,12.20
2017-11-08T03:27:47.555Z,11.67
2017-11-08T03:30:16.085Z,10.97
2017-11-08T03:32:44.377Z,13.17
2017-11-08T03:35:12.720Z,12.50
2017-11-08T03:37:41.016Z,15.00
2017-11-08T03:40:09.340Z,11.80
2017-11-08T03:42:37.794Z,12.70
2017-11-08T03:45:06.145Z,9.93
2017-11-08T03:47:34.531Z,12.20
2017-11-08T03:50:02.823Z,12.07
2017-11-08T03:52:31.184Z,12.60
2017-11-08T03:54:59.435Z,10.70
2017-11-08T03:57:27.923Z,11.37
2017-11-08T03:59:56.203Z,13.43
2017-11-08T04:02:24.520Z,13.43
2017-11-08T04:04:52.795Z,12.93
2017-11-08T04:07:21.236Z,12.67
2017-11-08T04:09:49.521Z,11.47
2017-11-08T04:12:17.860Z,14.37
2017-11-08T04:14:46.135Z,11.43
2017-11-08T04:17:14.472Z,11.27
2017-11-08T04:19:42.763Z,11.00
2017-11-08T04:22:11.096Z,12.30
2017-11-08T04:24:39.406Z,12.83
2017-11-08T04:27:07.847Z,10.70
2017-11-08T04:29:36.300Z,11.20
2017-11-08T04:32:04.611Z,12.43
2017-11-08T04:34:33.055Z,12.60
2017-11-08T04:37:01.363Z,12.13
2017-11-08T04:39:29.655Z,13.57
2017-11-08T04:41:58.020Z,14.73
2017-11-08T04:44:26.312Z,15.07
2017-11-08T04:46:54.615Z,13.73
2017-11-08T04:49:22.887Z,15.13
2017-11-08T04:51:51.192Z,16.40
2017-11-08T04:54:19.813Z,13.53
2017-11-08T04:56:48.120Z,12.20
2017-11-08T04:59:16.397Z,13.10
2017-11-08T05:01:44.744Z,15.63
2017-11-08T05:04:13.211Z,14.83
2017-11-08T05:06:41.495Z,11.17
2017-11-08T05:09:09.959Z,11.80
2017-11-08T05:11:38.263Z,13.50
2017-11-08T05:14:06.715Z,13.90
2017-11-08T05:16:35.020Z,14.33
2017-11-08T05:19:03.480Z,13.63
2017-11-08T05:21:31.979Z,11.50
2017-11-08T05:24:00.276Z,14.10
2017-11-08T05:26:28.734Z,14.53
2017-11-08T05:28:57.079Z,15.30
2017-11-08T05:31:25.793Z,15.50
2017-11-08T05:33:54.159Z,15.03
2017-11-08T05:36:22.472Z,17.33
2017-11-08T05:38:50.766Z,16.60
2017-11-08T05:41:19.500Z,16.43
2017-11-08T05:43:47.866Z,17.17
2017-11-08T05:46:16.186Z,19.13
2017-11-08T05:48:44.619Z,19.77
2017-11-08T05:51:12.924Z,18.27
2017-11-08T05:53:41.199Z,21.80
2017-11-08T05:56:09.499Z,20.13
2017-11-08T05:58:37.784Z,29.20
2017-11-08T06:01:06.113Z,29.07
2017-11-08T06:03:37.661Z,23.60
2017-11-08T06:06:06.067Z,24.93
2017-11-08T06:08:34.353Z,25.00
2017-11-08T06:11:02.713Z,21.40
2017-11-08T06:13:31.191Z,28.00
2017-11-08T06:15:59.561Z,22.07
2017-11-08T06:18:27.842Z,27.70
2017-11-08T06:20:56.339Z,27.33
2017-11-08T06:23:24.628Z,33.77
2017-11-08T06:25:53.091Z,28.13
2017-11-08T06:28:21.383Z,24.43
2017-11-08T06:30:49.852Z,31.97
2017-11-08T06:33:18.133Z,35.33
2017-11-08T06:35:46.476Z,25.57
2017-11-08T06:38:14.791Z,27.23
2017-11-08T06:40:43.168Z,29.27
2017-11-08T06:43:11.540Z,29.47
2017-11-08T06:45:39.894Z,26.33
2017-11-08T06:48:08.176Z,26.10
2017-11-08T06:50:38.379Z,24.87
2017-11-08T06:53:06.669Z,28.37
2017-11-08T06:55:36.860Z,23.67
2017-11-08T06:58:05.178Z,23.57
2017-11-08T07:00:33.512Z,30.60
2017-11-08T07:03:01.838Z,32.00
2017-11-08T07:05:30.172Z,23.90
2017-11-08T07:07:58.593Z,21.60
2017-11-08T07:10:26.972Z,28.17
2017-11-08T07:12:55.260Z,25.47
2017-11-08T07:15:23.612Z,23.43
2017-11-08T07:17:51.887Z,22.00
2017-11-08T07:20:20.273Z,20.87
2017-11-08T07:22:48.735Z,27.47
2017-11-08T07:25:17.079Z,24.27
2017-11-08T07:27:45.411Z,25.07
2017-11-08T07:30:13.800Z,24.80
2017-11-08T07:32:42.093Z,24.57
2017-11-08T07:35:10.436Z,24.90
2017-11-08T07:37:38.736Z,17.73
2017-11-08T07:40:07.118Z,24.07
2017-11-08T07:42:35.417Z,20.20
2017-11-08T07:45:03.747Z,21.70
2017-11-08T07:47:32.075Z,20.10
2017-11-08T07:50:00.361Z,22.23
2017-11-08T07:52:28.695Z,20.00
2017-11-08T07:55:02.236Z,21.37
2017-11-08T07:57:31.521Z,20.80
2017-11-08T08:00:01.870Z,20.43
2017-11-08T08:02:30.700Z,19.43
2017-11-08T08:04:59.248Z,25.43
2017-11-08T08:07:28.512Z,21.90
2017-11-08T08:09:56.808Z,22.30
2017-11-08T08:12:27.171Z,21.17
2017-11-08T08:14:56.235Z,22.20
2017-11-08T08:17:24.844Z,19.83
2017-11-08T08:19:53.172Z,21.10
2017-11-08T08:22:22.363Z,19.30
2017-11-08T08:24:50.687Z,20.13
2017-11-08T08:27:19.030Z,21.73
2017-11-08T08:29:47.504Z,20.67
2017-11-08T08:32:15.936Z,21.13
2017-11-08T08:34:45.061Z,18.23
2017-11-08T08:37:13.431Z,18.53
2017-11-08T08:39:42.121Z,22.70
2017-11-08T08:42:10.471Z,20.90
2017-11-08T08:44:39.252Z,20.77
2017-11-08T08:47:07.567Z,23.17
2017-11-08T08:49:35.884Z,17.90
2017-11-08T08:52:04.322Z,17.67
2017-11-08T08:54:32.631Z,21.80
2017-11-08T08:57:00.964Z,18.50
2017-11-08T08:59:29.288Z,21.67
2017-11-08T09:01:57.616Z,18.07
2017-11-08T09:04:30.901Z,20.80
2017-11-08T09:06:59.260Z,20.90
2017-11-08T09:09:27.759Z,17.40
2017-11-08T09:11:56.088Z,17.90
2017-11-08T09:14:24.529Z,22.50
2017-11-08T09:16:52.916Z,18.40
2017-11-08T09:19:21.250Z,22.60
2017-11-08T09:21:49.605Z,21.70
2017-11-08T09:24:20.241Z,21.93
2017-11-08T09:26:49.618Z,20.73
2017-11-08T09:29:18.624Z,22.17
2017-11-08T09:31:46.944Z,20.80
2017-11-08T09:34:15.263Z,22.20
2017-11-08T09:36:43.624Z,19.33
2017-11-08T09:39:13.748Z,22.33
2017-11-08T09:41:42.127Z,22.93
2017-11-08T09:44:10.935Z,21.77
2017-11-08T09:46:39.496Z,20.97
2017-11-08T09:49:09.749Z,20.20
2017-11-08T09:51:38.111Z,20.20
2017-11-08T09:54:09.379Z,21.10
2017-11-08T09:56:37.884Z,19.07
2017-11-08T09:59:06.167Z,24.17
2017-11-08T10:01:39.724Z,21.07
2017-11-08T10:04:08.036Z,20.67
2017-11-08T10:06:39.144Z,22.83
2017-11-08T10:09:07.461Z,19.57
2017-11-08T10:12:14.667Z,19.73
2017-11-08T10:14:43.163Z,18.87
2017-11-08T10:17:11.497Z,23.37
2017-11-08T10:19:39.884Z,19.13
2017-11-08T10:22:10.611Z,18.37
2017-11-08T10:24:44.092Z,20.37
2017-11-08T10:27:12.448Z,20.90
2017-11-08T10:29:40.821Z,20.70
2017-11-08T10:32:09.695Z,19.17
2017-11-08T10:34:38.271Z,20.70
2017-11-08T10:37:06.671Z,21.20
2017-11-08T10:39:34.999Z,17.47
2017-11-08T10:42:03.297Z,17.83
2017-11-08T10:44:31.838Z,18.70
2017-11-08T10:47:02.057Z,18.23
2017-11-08T10:49:35.840Z,20.07
2017-11-08T10:52:04.297Z,20.67
2017-11-08T10:54:32.584Z,21.63
2017-11-08T10:57:01.145Z,15.10
2017-11-08T10:59:29.448Z,18.83
2017-11-08T11:01:57.865Z,16.00
2017-11-08T11:04:26.178Z,16.77
2017-11-08T11:06:55.111Z,16.83
2017-11-08T11:09:24.142Z,18.00
2017-11-08T11:11:52.765Z,15.33
2017-11-08T11:14:21.941Z,16.63
2017-11-08T11:16:50.428Z,17.63
2017-11-08T11:19:21.677Z,16.27
2017-11-08T11:22:04.721Z,15.70
2017-11-08T11:24:34.008Z,14.17
2017-11-08T11:27:07.717Z,16.90
2017-11-08T11:29:36.040Z,16.90
2017-11-08T11:32:04.559Z,17.60
2017-11-08T11:34:33.060Z,21.03
2017-11-08T11:37:01.557Z,16.30
2017-11-08T11:39:35.610Z,19.20
2017-11-08T11:42:04.012Z,15.13
2017-11-08T11:44:32.304Z,15.37
2017-11-08T11:47:00.596Z,13.27
2017-11-08T11:49:34.153Z,15.87
2017-11-08T11:52:02.488Z,17.27
2017-11-08T11:54:30.829Z,16.53
2017-11-08T11:56:59.256Z,16.70
2017-11-08T11:59:27.617Z,15.93
2017-11-08T12:01:56.016Z,14.70
2017-11-08T12:04:24.326Z,13.60
2017-11-08T12:06:52.868Z,16.43
2017-11-08T12:09:21.319Z,16.63
2017-11-08T12:11:49.746Z,16.73
2017-11-08T12:14:18.158Z,14.67
2017-11-08T12:16:46.612Z,15.67
2017-11-08T12:19:15.668Z,14.37
2017-11-08T12:21:44.109Z,14.67
2017-11-08T12:24:12.568Z,15.33
2017-11-08T12:26:40.924Z,14.00
2017-11-08T12:29:09.281Z,14.10
2017-11-08T12:31:37.732Z,12.97
2017-11-08T12:34:12.968Z,13.50
2017-11-08T12:36:41.833Z,12.60
2017-11-08T12:39:12.266Z,13.50
2017-11-08T12:41:40.901Z,14.57
2017-11-08T12:44:10.273Z,13.40
2017-11-08T12:46:39.361Z,15.90
2017-11-08T12:49:08.483Z,13.60
2017-11-08T12:51:36.889Z,15.10
2017-11-08T12:54:06.092Z,13.40
2017-11-08T12:56:35.474Z,13.73
2017-11-08T12:59:03.813Z,13.90
2017-11-08T13:01:32.209Z,14.30
2017-11-08T13:04:00.520Z,13.63
2017-11-08T13:06:29.052Z,13.77
2017-11-08T13:08:57.508Z,13.53
2017-11-08T13:11:31.313Z,14.40
2017-11-08T13:13:59.813Z,13.30
2017-11-08T13:16:28.992Z,12.83
2017-11-08T13:18:57.318Z,13.30
2017-11-08T13:21:25.679Z,12.47
2017-11-08T13:23:54.134Z,14.90
2017-11-08T13:26:22.516Z,12.03
2017-11-08T13:28:50.812Z,12.27
2017-11-08T13:31:19.208Z,12.47
2017-11-08T13:33:47.504Z,13.37
2017-11-08T13:36:16.005Z,16.37
2017-11-08T13:38:44.308Z,12.27
2017-11-08T13:41:12.645Z,13.17
2017-11-08T13:43:40.944Z,14.40
2017-11-08T13:46:09.260Z,14.90
2017-11-08T13:48:37.525Z,13.00
2017-11-08T13:51:05.850Z,13.10
2017-11-08T13:53:34.193Z,13.10
2017-11-08T13:56:02.589Z,13.10
2017-11-08T13:58:32.775Z,13.83
2017-11-08T14:01:01.417Z,13.53
2017-11-08T14:03:30.177Z,14.93
2017-11-08T14:05:58.510Z,13.90
2017-11-08T14:08:26.839Z,13.40
2017-11-08T14:10:55.301Z,13.70
2017-11-08T14:13:23.645Z,14.57
2017-11-08T14:15:52.044Z,12.10
2017-11-08T14:18:20.362Z,12.70
2017-11-08T14:20:48.660Z,13.17
2017-11-08T14:23:16.984Z,13.03
2017-11-08T14:25:45.488Z,16.23
2017-11-08T14:28:13.813Z,13.10
2017-11-08T14:30:42.165Z,14.77
2017-11-08T14:33:10.476Z,14.67
2017-11-08T14:35:42.549Z,13.50
2017-11-08T14:38:11.679Z,16.83
2017-11-08T14:40:40.064Z,13.80
2017-11-08T14:43:08.425Z,14.83
2017-11-08T14:45:36.785Z,14.30
2017-11-08T14:48:05.132Z,13.10
2017-11-08T14:50:33.475Z,12.40
2017-11-08T14:53:07.236Z,13.40
2017-11-08T14:55:35.754Z,19.80
2017-11-08T14:58:04.049Z,15.93
2017-11-08T15:00:32.405Z,15.40
2017-11-08T15:03:00.789Z,21.70
2017-11-08T15:05:29.123Z,23.47
2017-11-08T15:07:57.400Z,22.40
2017-11-08T15:10:26.039Z,18.37
2017-11-08T15:12:54.421Z,14.30
2017-11-08T15:15:22.749Z,18.70
2017-11-08T15:17:51.043Z,19.43
2017-11-08T15:20:24.208Z,16.67
2017-11-08T15:22:52.556Z,18.20
2017-11-08T15:25:20.882Z,14.17
2017-11-08T15:27:49.250Z,14.70
2017-11-08T15:30:22.960Z,21.00
2017-11-08T15:32:51.452Z,17.80
2017-11-08T15:35:19.824Z,26.30
2017-11-08T15:37:48.097Z,27.37
2017-11-08T15:40:40.140Z,18.60
2017-11-08T15:43:08.597Z,16.50
2017-11-08T15:45:37.096Z,17.33
2017-11-08T15:48:05.481Z,16.30
2017-11-08T15:50:33.786Z,19.77
2017-11-08T15:53:02.060Z,15.37
2017-11-08T15:55:30.363Z,17.40
2017-11-08T15:57:58.692Z,14.80
2017-11-08T16:00:27.061Z,15.70
2017-11-08T16:02:55.587Z,17.43
2017-11-08T16:05:23.972Z,16.10
2017-11-08T16:07:52.281Z,15.03
2017-11-08T16:10:20.636Z,15.60
2017-11-08T16:12:50.986Z,16.83
2017-11-08T16:15:23.009Z,18.07
2017-11-08T16:17:52.225Z,20.10
2017-11-08T16:20:20.567Z,14.87
2017-11-08T16:22:49.006Z,16.17
2017-11-08T16:25:17.343Z,18.90
2017-11-08T16:27:45.768Z,14.70
2017-11-08T16:30:14.069Z,15.90
2017-11-08T16:32:43.387Z,16.23
2017-11-08T16:35:11.850Z,18.87
2017-11-08T16:37:40.339Z,20.20
2017-11-08T16:40:08.674Z,18.10
2017-11-08T16:42:36.989Z,21.00
2017-11-08T16:45:05.584Z,23.80
2017-11-08T16:47:33.883Z,20.40
2017-11-08T16:50:02.457Z,19.30
2017-11-08T16:52:30.836Z,18.83
2017-11-08T16:54:59.149Z,18.03
2017-11-08T16:57:27.577Z,19.90
2017-11-08T16:59:56.050Z,22.07
2017-11-08T17:02:24.412Z,21.33
2017-11-08T17:04:52.777Z,20.93
2017-11-08T17:07:21.220Z,23.83
2017-11-08T17:09:49.560Z,26.23
2017-11-08T17:12:17.942Z,24.63
2017-11-08T17:14:46.509Z,36.80
2017-11-08T17:17:15.001Z,38.13
2017-11-08T17:19:43.284Z,38.07
2017-11-08T17:22:11.601Z,44.53
2017-11-08T17:24:40.128Z,44.30
2017-11-08T17:27:08.721Z,46.97
2017-11-08T17:29:37.013Z,46.93
2017-11-08T17:32:05.329Z,55.60
2017-11-08T17:34:33.722Z,53.80
2017-11-08T17:37:02.024Z,56.63
2017-11-08T17:39:30.381Z,59.73
2017-11-08T17:41:58.688Z,67.13
2017-11-08T17:44:27.000Z,55.07
2017-11-08T17:46:55.309Z,53.33
2017-11-08T17:49:23.739Z,58.27
2017-11-08T17:51:52.108Z,51.43
2017-11-08T17:54:20.462Z,48.77
2017-11-08T17:56:48.820Z,57.50
2017-11-08T17:59:17.121Z,45.60
2017-11-08T18:01:45.442Z,46.73
2017-11-08T18:04:13.740Z,55.53
2017-11-08T18:06:42.155Z,51.67
2017-11-08T18:09:10.632Z,41.00
2017-11-08T18:11:38.950Z,46.43
2017-11-08T18:14:07.276Z,44.93
2017-11-08T18:16:35.598Z,46.30
2017-11-08T18:19:03.908Z,44.87
2017-11-08T18:21:32.220Z,50.80
2017-11-08T18:24:00.668Z,44.73
2017-11-08T18:26:29.014Z,36.00
2017-11-08T18:28:57.380Z,44.83
2017-11-08T18:31:25.704Z,44.70
2017-11-08T18:33:53.981Z,35.53
2017-11-08T18:36:22.308Z,37.13
2017-11-08T18:38:50.737Z,39.80
2017-11-08T18:41:19.125Z,43.43
2017-11-08T18:43:47.429Z,36.70
2017-11-08T18:46:15.845Z,54.23
2017-11-08T18:48:44.143Z,33.90
2017-11-08T18:51:12.473Z,37.70
2017-11-08T18:53:40.812Z,37.27
2017-11-08T18:56:09.150Z,33.50
2017-11-08T18:58:37.589Z,39.37
2017-11-08T19:01:05.902Z,44.93
2017-11-08T19:03:34.237Z,35.40
2017-11-08T19:06:02.569Z,35.77
2017-11-08T19:08:30.934Z,35.00
2017-11-08T19:10:59.385Z,31.57
2017-11-08T19:13:27.699Z,40.80
2017-11-08T19:15:56.041Z,32.70
2017-11-08T19:18:24.372Z,29.20
2017-11-08T19:20:52.720Z,34.40
2017-11-08T19:23:21.149Z,26.93
2017-11-08T19:25:49.492Z,38.47
2017-11-08T19:28:17.809Z,32.23
2017-11-08T19:30:46.485Z,26.40
2017-11-08T19:33:16.182Z,29.90
2017-11-08T19:35:44.799Z,30.07
2017-11-08T19:38:13.173Z,30.13
2017-11-08T19:40:42.091Z,25.50
2017-11-08T19:43:10.873Z,27.47
2017-11-08T19:45:39.340Z,33.03
2017-11-08T19:48:07.914Z,30.30
2017-11-08T19:50:36.337Z,34.70
2017-11-08T19:53:04.660Z,24.13
2017-11-08T19:55:33.038Z,28.10
2017-11-08T19:58:01.347Z,33.60
2017-11-08T20:00:29.709Z,26.40
2017-11-08T20:02:58.000Z,29.83
2017-11-08T20:05:26.436Z,31.00
2017-11-08T20:07:54.749Z,32.23
2017-11-08T20:10:23.117Z,24.67
2017-11-08T20:12:51.421Z,31.10
2017-11-08T20:15:19.980Z,27.20
2017-11-08T20:17:48.248Z,27.53
2017-11-08T20:20:16.737Z,21.80
2017-11-08T20:22:45.181Z,24.37
2017-11-08T20:25:13.498Z,26.60
2017-11-08T20:27:41.788Z,21.33
2017-11-08T20:30:10.100Z,22.57
2017-11-08T20:32:38.484Z,22.83
2017-11-08T20:35:07.336Z,22.83
2017-11-08T20:37:35.676Z,23.67
2017-11-08T20:40:04.209Z,22.20
2017-11-08T20:42:32.660Z,24.67
2017-11-08T20:45:01.119Z,21.60
2017-11-08T20:47:29.492Z,24.17
2017-11-08T20:49:57.819Z,27.77
2017-11-08T20:52:26.457Z,25.17
2017-11-08T20:54:54.817Z,22.90
2017-11-08T20:57:23.196Z,21.93
2017-11-08T20:59:51.577Z,25.80
2017-11-08T21:02:19.933Z,24.23
2017-11-08T21:04:48.288Z,25.27
2017-11-08T21:07:16.712Z,22.70
2017-11-08T21:09:45.018Z,20.47
2017-11-08T21:12:13.404Z,26.40
2017-11-08T21:14:41.716Z,25.70
2017-11-08T21:17:10.109Z,24.70
2017-11-08T21:19:38.429Z,23.40
2017-11-08T21:22:06.844Z,24.27
2017-11-08T21:24:35.165Z,28.80
2017-11-08T21:27:06.685Z,23.87
2017-11-08T21:29:35.017Z,26.30
2017-11-08T21:32:03.360Z,23.70
2017-11-08T21:34:31.726Z,22.73
2017-11-08T21:37:00.276Z,29.33
2017-11-08T21:39:31.077Z,22.73
2017-11-08T21:41:59.481Z,24.33
2017-11-08T21:44:27.757Z,26.47
2017-11-08T21:46:56.268Z,23.33
2017-11-08T21:49:24.548Z,19.83
2017-11-08T21:51:53.008Z,19.53
2017-11-08T21:54:21.322Z,24.50
2017-11-08T21:56:49.718Z,25.00
2017-11-08T21:59:18.271Z,22.90
2017-11-08T22:01:46.634Z,22.33
2017-11-08T22:04:14.927Z,21.90
2017-11-08T22:06:43.420Z,22.47
2017-11-08T22:09:11.713Z,19.73
2017-11-08T22:11:40.041Z,25.03
2017-11-08T22:14:08.345Z,23.73
2017-11-08T22:16:37.044Z,22.07
2017-11-08T22:19:05.320Z,21.57
2017-11-08T22:21:33.652Z,23.00
2017-11-08T22:24:01.972Z,23.80
2017-11-08T22:26:30.393Z,21.90
2017-11-08T22:28:58.681Z,23.47
2017-11-08T22:31:27.030Z,23.93
2017-11-08T22:33:55.341Z,20.87
2017-11-08T22:36:23.796Z,22.80
2017-11-08T22:38:52.115Z,25.20
2017-11-08T22:41:20.472Z,21.20
2017-11-08T22:43:48.749Z,23.03
2017-11-08T22:46:17.106Z,23.10
2017-11-08T22:48:45.401Z,22.50
2017-11-08T22:51:13.745Z,24.20
2017-11-08T22:53:42.020Z,25.73
2017-11-08T22:56:10.436Z,22.73
2017-11-08T22:58:38.784Z,20.60
2017-11-08T23:01:07.091Z,22.93
2017-11-08T23:03:35.466Z,23.77
2017-11-08T23:06:03.793Z,26.87
2017-11-08T23:08:32.118Z,23.83
2017-11-08T23:11:00.441Z,22.93
2017-11-08T23:13:28.739Z,24.73
2017-11-08T23:15:57.072Z,22.03
2017-11-08T23:18:25.387Z,20.70
2017-11-08T23:20:53.917Z,23.90
2017-11-08T23:23:22.197Z,22.23
2017-11-08T23:25:50.607Z,22.17
2017-11-08T23:28:19.000Z,21.93
2017-11-08T23:30:47.509Z,23.63
2017-11-08T23:33:15.951Z,20.50
2017-11-08T23:35:44.268Z,22.63
2017-11-08T23:38:12.549Z,21.40
2017-11-08T23:40:40.897Z,22.03
2017-11-08T23:43:09.209Z,23.30
2017-11-08T23:45:37.610Z,22.83
2017-11-08T23:48:05.913Z,21.30
2017-11-08T23:50:34.212Z,24.63
2017-11-08T23:53:04.392Z,23.63
2017-11-08T23:55:32.790Z,22.10
2017-11-08T23:58:01.170Z,22.10
